sensor_id;sensor_type;location;lat;lon;timestamp;temperature;humidity
67752;DHT22;54551;51.068;5.826;2022-09-13T00:00:38;19.90;99.90
67752;DHT22;54551;51.068;5.826;2022-09-13T00:03:06;19.90;99.90
67752;DHT22;54551;51.068;5.826;2022-09-13T00:05:34;19.90;99.90
67752;DHT22;54551;51.068;5.826;2022-09-13T00:08:00;19.90;99.90
67752;DHT22;54551;51.068;5.826;2022-09-13T00:10:27;20.00;99.90
67752;DHT22;54551;51.068;5.826;2022-09-13T00:12:53;19.90;99.90
67752;DHT22;54551;51.068;5.826;2022-09-13T00:15:20;20.00;99.90
67752;DHT22;54551;51.068;5.826;2022-09-13T00:17:46;20.00;99.90
67752;DHT22;54551;51.068;5.826;2022-09-13T00:20:12;20.00;99.90
67752;DHT22;54551;51.068;5.826;2022-09-13T00:22:38;20.00;99.90
67752;DHT22;54551;51.068;5.826;2022-09-13T00:25:05;20.00;99.90
67752;DHT22;54551;51.068;5.826;2022-09-13T00:27:33;20.00;99.90
67752;DHT22;54551;51.068;5.826;2022-09-13T00:29:59;20.00;99.90
67752;DHT22;54551;51.068;5.826;2022-09-13T00:32:26;20.00;99.90
67752;DHT22;54551;51.068;5.826;2022-09-13T00:34:52;19.90;99.90
67752;DHT22;54551;51.068;5.826;2022-09-13T00:37:18;19.90;99.90
67752;DHT22;54551;51.068;5.826;2022-09-13T00:39:44;19.90;99.90
67752;DHT22;54551;51.068;5.826;2022-09-13T00:42:14;19.90;99.90
67752;DHT22;54551;51.068;5.826;2022-09-13T00:47:19;19.90;99.90
67752;DHT22;54551;51.068;5.826;2022-09-13T00:49:47;19.90;99.90
67752;DHT22;54551;51.068;5.826;2022-09-13T00:52:19;19.80;99.90
67752;DHT22;54551;51.068;5.826;2022-09-13T00:54:51;19.80;99.90
67752;DHT22;54551;51.068;5.826;2022-09-13T00:57:21;19.80;99.90
67752;DHT22;54551;51.068;5.826;2022-09-13T01:00:15;19.80;99.90
67752;DHT22;54551;51.068;5.826;2022-09-13T01:05:19;19.70;99.90
67752;DHT22;54551;51.068;5.826;2022-09-13T01:07:47;19.70;99.90
67752;DHT22;54551;51.068;5.826;2022-09-13T01:10:13;19.60;99.90
67752;DHT22;54551;51.068;5.826;2022-09-13T01:12:57;19.60;99.90
67752;DHT22;54551;51.068;5.826;2022-09-13T01:15:25;19.60;99.90
67752;DHT22;54551;51.068;5.826;2022-09-13T01:17:52;19.60;99.90
67752;DHT22;54551;51.068;5.826;2022-09-13T01:20:21;19.50;99.90
67752;DHT22;54551;51.068;5.826;2022-09-13T01:31:39;19.40;99.90
67752;DHT22;54551;51.068;5.826;2022-09-13T01:37:26;19.50;99.90
67752;DHT22;54551;51.068;5.826;2022-09-13T01:45:27;19.40;99.90
67752;DHT22;54551;51.068;5.826;2022-09-13T01:48:16;19.40;99.90
67752;DHT22;54551;51.068;5.826;2022-09-13T01:51:06;19.50;99.90
67752;DHT22;54551;51.068;5.826;2022-09-13T01:53:48;19.50;99.90
67752;DHT22;54551;51.068;5.826;2022-09-13T01:56:40;19.60;99.90
67752;DHT22;54551;51.068;5.826;2022-09-13T01:59:35;19.60;99.90
67752;DHT22;54551;51.068;5.826;2022-09-13T02:02:17;19.70;99.90
67752;DHT22;54551;51.068;5.826;2022-09-13T02:04:52;19.60;99.90
67752;DHT22;54551;51.068;5.826;2022-09-13T02:07:41;19.70;99.90
67752;DHT22;54551;51.068;5.826;2022-09-13T02:10:15;19.70;99.90
67752;DHT22;54551;51.068;5.826;2022-09-13T02:12:46;19.80;99.90
67752;DHT22;54551;51.068;5.826;2022-09-13T02:15:20;19.80;99.90
67752;DHT22;54551;51.068;5.826;2022-09-13T02:18:09;19.80;99.90
67752;DHT22;54551;51.068;5.826;2022-09-13T02:20:42;19.90;99.90
67752;DHT22;54551;51.068;5.826;2022-09-13T02:23:37;19.90;99.90
67752;DHT22;54551;51.068;5.826;2022-09-13T02:26:06;19.80;99.90
67752;DHT22;54551;51.068;5.826;2022-09-13T02:28:41;19.80;99.90
67752;DHT22;54551;51.068;5.826;2022-09-13T02:31:09;19.80;99.90
67752;DHT22;54551;51.068;5.826;2022-09-13T02:33:40;19.90;99.90
67752;DHT22;54551;51.068;5.826;2022-09-13T02:36:12;19.90;99.90
67752;DHT22;54551;51.068;5.826;2022-09-13T02:38:50;20.00;99.90
67752;DHT22;54551;51.068;5.826;2022-09-13T02:41:29;20.00;99.90
67752;DHT22;54551;51.068;5.826;2022-09-13T02:44:09;20.00;99.90
67752;DHT22;54551;51.068;5.826;2022-09-13T02:46:46;20.00;99.90
67752;DHT22;54551;51.068;5.826;2022-09-13T02:55:09;20.10;99.90
67752;DHT22;54551;51.068;5.826;2022-09-13T03:00:18;20.10;99.90
67752;DHT22;54551;51.068;5.826;2022-09-13T03:02:46;20.00;99.90
67752;DHT22;54551;51.068;5.826;2022-09-13T03:05:13;20.00;99.90
67752;DHT22;54551;51.068;5.826;2022-09-13T03:07:38;20.00;99.90
67752;DHT22;54551;51.068;5.826;2022-09-13T03:10:10;20.10;99.90
67752;DHT22;54551;51.068;5.826;2022-09-13T03:16:27;20.10;99.90
67752;DHT22;54551;51.068;5.826;2022-09-13T03:22:44;20.10;99.90
67752;DHT22;54551;51.068;5.826;2022-09-13T03:28:23;20.00;99.90
67752;DHT22;54551;51.068;5.826;2022-09-13T03:30:54;20.00;99.90
67752;DHT22;54551;51.068;5.826;2022-09-13T03:33:28;20.00;99.90
67752;DHT22;54551;51.068;5.826;2022-09-13T03:36:11;20.00;99.90
67752;DHT22;54551;51.068;5.826;2022-09-13T03:38:44;19.90;99.90
67752;DHT22;54551;51.068;5.826;2022-09-13T03:41:20;19.90;99.90
67752;DHT22;54551;51.068;5.826;2022-09-13T03:43:52;19.90;99.90
67752;DHT22;54551;51.068;5.826;2022-09-13T03:46:38;19.90;99.90
67752;DHT22;54551;51.068;5.826;2022-09-13T03:49:14;19.90;99.90
67752;DHT22;54551;51.068;5.826;2022-09-13T03:51:47;19.90;99.90
67752;DHT22;54551;51.068;5.826;2022-09-13T03:54:22;19.80;99.90
67752;DHT22;54551;51.068;5.826;2022-09-13T03:59:59;19.80;99.90
67752;DHT22;54551;51.068;5.826;2022-09-13T04:02:25;19.80;99.90
67752;DHT22;54551;51.068;5.826;2022-09-13T04:04:51;19.80;99.90
67752;DHT22;54551;51.068;5.826;2022-09-13T04:07:19;19.80;99.90
67752;DHT22;54551;51.068;5.826;2022-09-13T04:09:45;19.80;99.90
67752;DHT22;54551;51.068;5.826;2022-09-13T04:12:12;19.80;99.90
67752;DHT22;54551;51.068;5.826;2022-09-13T04:14:39;19.80;99.90
67752;DHT22;54551;51.068;5.826;2022-09-13T04:17:05;19.80;99.90
67752;DHT22;54551;51.068;5.826;2022-09-13T04:19:32;19.80;99.90
67752;DHT22;54551;51.068;5.826;2022-09-13T04:21:58;19.80;99.90
67752;DHT22;54551;51.068;5.826;2022-09-13T04:24:26;19.80;99.90
67752;DHT22;54551;51.068;5.826;2022-09-13T04:26:52;19.80;99.90
67752;DHT22;54551;51.068;5.826;2022-09-13T04:29:20;19.70;99.90
67752;DHT22;54551;51.068;5.826;2022-09-13T04:31:46;19.70;99.90
67752;DHT22;54551;51.068;5.826;2022-09-13T04:34:15;19.70;99.90
67752;DHT22;54551;51.068;5.826;2022-09-13T04:36:43;19.70;99.90
67752;DHT22;54551;51.068;5.826;2022-09-13T04:39:10;19.70;99.90
67752;DHT22;54551;51.068;5.826;2022-09-13T04:41:36;19.70;99.90
67752;DHT22;54551;51.068;5.826;2022-09-13T04:44:04;19.70;99.90
67752;DHT22;54551;51.068;5.826;2022-09-13T04:46:30;19.70;99.90
67752;DHT22;54551;51.068;5.826;2022-09-13T04:48:56;19.70;99.90
67752;DHT22;54551;51.068;5.826;2022-09-13T04:51:21;19.80;99.90
67752;DHT22;54551;51.068;5.826;2022-09-13T04:53:52;19.80;99.90
67752;DHT22;54551;51.068;5.826;2022-09-13T04:56:20;19.80;99.90
67752;DHT22;54551;51.068;5.826;2022-09-13T04:58:49;19.80;99.90
67752;DHT22;54551;51.068;5.826;2022-09-13T05:01:16;19.80;99.90
67752;DHT22;54551;51.068;5.826;2022-09-13T05:03:42;19.80;99.90
67752;DHT22;54551;51.068;5.826;2022-09-13T05:06:11;19.80;99.90
67752;DHT22;54551;51.068;5.826;2022-09-13T05:08:37;19.80;99.90
67752;DHT22;54551;51.068;5.826;2022-09-13T05:11:04;19.80;99.90
67752;DHT22;54551;51.068;5.826;2022-09-13T05:13:31;19.80;99.90
67752;DHT22;54551;51.068;5.826;2022-09-13T05:16:03;19.80;99.90
67752;DHT22;54551;51.068;5.826;2022-09-13T05:18:31;19.90;99.90
67752;DHT22;54551;51.068;5.826;2022-09-13T05:20:59;19.90;99.90
67752;DHT22;54551;51.068;5.826;2022-09-13T05:23:26;19.90;99.90
67752;DHT22;54551;51.068;5.826;2022-09-13T05:25:57;19.90;99.90
67752;DHT22;54551;51.068;5.826;2022-09-13T05:28:25;19.90;99.90
67752;DHT22;54551;51.068;5.826;2022-09-13T05:33:26;19.90;99.90
67752;DHT22;54551;51.068;5.826;2022-09-13T05:35:52;19.90;99.90
67752;DHT22;54551;51.068;5.826;2022-09-13T05:38:19;19.90;99.90
67752;DHT22;54551;51.068;5.826;2022-09-13T05:40:45;19.90;99.90
67752;DHT22;54551;51.068;5.826;2022-09-13T05:43:11;19.90;99.90
67752;DHT22;54551;51.068;5.826;2022-09-13T05:45:38;19.90;99.90
67752;DHT22;54551;51.068;5.826;2022-09-13T05:48:04;19.90;99.90
67752;DHT22;54551;51.068;5.826;2022-09-13T05:50:29;19.90;99.90
67752;DHT22;54551;51.068;5.826;2022-09-13T05:52:56;19.90;99.90
67752;DHT22;54551;51.068;5.826;2022-09-13T05:55:22;19.90;99.90
67752;DHT22;54551;51.068;5.826;2022-09-13T05:57:49;20.00;99.90
67752;DHT22;54551;51.068;5.826;2022-09-13T06:00:15;20.00;99.90
67752;DHT22;54551;51.068;5.826;2022-09-13T06:02:41;20.00;99.90
67752;DHT22;54551;51.068;5.826;2022-09-13T06:05:08;20.00;99.90
67752;DHT22;54551;51.068;5.826;2022-09-13T06:07:41;20.00;99.90
67752;DHT22;54551;51.068;5.826;2022-09-13T06:10:08;20.10;99.90
67752;DHT22;54551;51.068;5.826;2022-09-13T06:12:35;20.10;99.90
67752;DHT22;54551;51.068;5.826;2022-09-13T06:15:01;20.10;99.90
67752;DHT22;54551;51.068;5.826;2022-09-13T06:17:27;20.10;99.90
67752;DHT22;54551;51.068;5.826;2022-09-13T06:19:53;20.20;99.90
67752;DHT22;54551;51.068;5.826;2022-09-13T06:22:21;20.20;99.90
67752;DHT22;54551;51.068;5.826;2022-09-13T06:24:47;20.20;99.90
67752;DHT22;54551;51.068;5.826;2022-09-13T06:27:13;20.30;99.90
67752;DHT22;54551;51.068;5.826;2022-09-13T06:29:39;20.30;99.90
67752;DHT22;54551;51.068;5.826;2022-09-13T06:32:05;20.40;99.90
67752;DHT22;54551;51.068;5.826;2022-09-13T06:34:31;20.40;99.90
67752;DHT22;54551;51.068;5.826;2022-09-13T06:36:58;20.40;99.90
67752;DHT22;54551;51.068;5.826;2022-09-13T06:39:24;20.50;99.90
67752;DHT22;54551;51.068;5.826;2022-09-13T06:41:50;20.50;99.90
67752;DHT22;54551;51.068;5.826;2022-09-13T06:44:19;20.50;99.90
67752;DHT22;54551;51.068;5.826;2022-09-13T06:46:45;20.50;99.90
67752;DHT22;54551;51.068;5.826;2022-09-13T06:49:11;20.60;99.90
67752;DHT22;54551;51.068;5.826;2022-09-13T06:51:37;20.60;99.90
67752;DHT22;54551;51.068;5.826;2022-09-13T06:54:03;20.70;99.90
67752;DHT22;54551;51.068;5.826;2022-09-13T06:56:36;20.70;99.90
67752;DHT22;54551;51.068;5.826;2022-09-13T06:59:05;20.80;99.90
67752;DHT22;54551;51.068;5.826;2022-09-13T07:01:42;20.90;99.90
67752;DHT22;54551;51.068;5.826;2022-09-13T07:04:13;21.00;99.90
67752;DHT22;54551;51.068;5.826;2022-09-13T07:06:42;21.00;99.90
67752;DHT22;54551;51.068;5.826;2022-09-13T07:09:11;21.00;99.90
67752;DHT22;54551;51.068;5.826;2022-09-13T07:11:39;21.00;99.90
67752;DHT22;54551;51.068;5.826;2022-09-13T07:14:06;21.10;99.90
67752;DHT22;54551;51.068;5.826;2022-09-13T07:16:37;21.10;99.90
67752;DHT22;54551;51.068;5.826;2022-09-13T07:19:05;21.10;99.90
67752;DHT22;54551;51.068;5.826;2022-09-13T07:21:32;21.10;99.90
67752;DHT22;54551;51.068;5.826;2022-09-13T07:24:01;21.10;99.90
67752;DHT22;54551;51.068;5.826;2022-09-13T07:26:27;21.20;99.90
67752;DHT22;54551;51.068;5.826;2022-09-13T07:28:56;21.20;99.90
67752;DHT22;54551;51.068;5.826;2022-09-13T07:31:28;21.30;99.90
67752;DHT22;54551;51.068;5.826;2022-09-13T07:33:55;21.30;99.90
67752;DHT22;54551;51.068;5.826;2022-09-13T07:36:22;21.40;99.90
67752;DHT22;54551;51.068;5.826;2022-09-13T07:38:49;21.40;99.90
67752;DHT22;54551;51.068;5.826;2022-09-13T07:41:17;21.50;99.90
67752;DHT22;54551;51.068;5.826;2022-09-13T07:43:44;21.60;99.90
67752;DHT22;54551;51.068;5.826;2022-09-13T07:46:12;21.70;99.90
67752;DHT22;54551;51.068;5.826;2022-09-13T07:48:40;21.80;99.90
67752;DHT22;54551;51.068;5.826;2022-09-13T07:53:35;21.90;99.90
67752;DHT22;54551;51.068;5.826;2022-09-13T07:56:19;22.00;99.90
67752;DHT22;54551;51.068;5.826;2022-09-13T07:58:47;22.20;99.90
67752;DHT22;54551;51.068;5.826;2022-09-13T08:01:28;22.30;99.90
67752;DHT22;54551;51.068;5.826;2022-09-13T08:04:02;22.50;99.90
67752;DHT22;54551;51.068;5.826;2022-09-13T08:06:30;22.70;99.90
67752;DHT22;54551;51.068;5.826;2022-09-13T08:08:56;22.80;99.90
67752;DHT22;54551;51.068;5.826;2022-09-13T08:11:33;22.90;99.90
67752;DHT22;54551;51.068;5.826;2022-09-13T08:13:59;23.10;99.90
67752;DHT22;54551;51.068;5.826;2022-09-13T08:16:27;23.20;99.90
67752;DHT22;54551;51.068;5.826;2022-09-13T08:18:55;23.40;99.90
67752;DHT22;54551;51.068;5.826;2022-09-13T08:21:22;23.40;99.90
67752;DHT22;54551;51.068;5.826;2022-09-13T08:23:53;23.60;99.90
67752;DHT22;54551;51.068;5.826;2022-09-13T08:26:19;23.70;99.90
67752;DHT22;54551;51.068;5.826;2022-09-13T08:28:44;23.80;99.90
67752;DHT22;54551;51.068;5.826;2022-09-13T08:31:11;23.80;99.90
67752;DHT22;54551;51.068;5.826;2022-09-13T08:33:38;23.90;99.90
67752;DHT22;54551;51.068;5.826;2022-09-13T08:36:04;23.90;99.90
67752;DHT22;54551;51.068;5.826;2022-09-13T08:38:31;24.00;99.90
67752;DHT22;54551;51.068;5.826;2022-09-13T08:41:24;24.00;99.90
67752;DHT22;54551;51.068;5.826;2022-09-13T08:46:37;24.20;99.90
67752;DHT22;54551;51.068;5.826;2022-09-13T08:49:10;24.30;99.90
67752;DHT22;54551;51.068;5.826;2022-09-13T08:51:41;24.40;99.90
67752;DHT22;54551;51.068;5.826;2022-09-13T08:54:11;24.50;99.90
67752;DHT22;54551;51.068;5.826;2022-09-13T09:05:24;25.20;99.90
67752;DHT22;54551;51.068;5.826;2022-09-13T09:08:03;25.20;99.90
67752;DHT22;54551;51.068;5.826;2022-09-13T09:10:34;25.20;99.90
67752;DHT22;54551;51.068;5.826;2022-09-13T09:13:05;25.30;99.90
67752;DHT22;54551;51.068;5.826;2022-09-13T09:15:38;25.30;99.90
67752;DHT22;54551;51.068;5.826;2022-09-13T09:20:44;25.40;99.90
67752;DHT22;54551;51.068;5.826;2022-09-13T09:23:20;25.50;99.90
67752;DHT22;54551;51.068;5.826;2022-09-13T09:25:47;25.70;99.90
67752;DHT22;54551;51.068;5.826;2022-09-13T09:28:17;25.90;99.90
67752;DHT22;54551;51.068;5.826;2022-09-13T09:36:22;27.00;99.90
67752;DHT22;54551;51.068;5.826;2022-09-13T09:38:51;27.40;99.90
67752;DHT22;54551;51.068;5.826;2022-09-13T09:41:29;27.80;99.90
67752;DHT22;54551;51.068;5.826;2022-09-13T09:46:38;28.50;99.90
67752;DHT22;54551;51.068;5.826;2022-09-13T09:49:15;28.80;99.90
67752;DHT22;54551;51.068;5.826;2022-09-13T09:52:03;29.20;99.90
67752;DHT22;54551;51.068;5.826;2022-09-13T09:54:32;29.60;99.90
67752;DHT22;54551;51.068;5.826;2022-09-13T09:57:00;29.70;99.90
67752;DHT22;54551;51.068;5.826;2022-09-13T09:59:30;29.80;99.90
67752;DHT22;54551;51.068;5.826;2022-09-13T10:02:10;30.00;99.90
67752;DHT22;54551;51.068;5.826;2022-09-13T10:04:36;30.20;99.90
67752;DHT22;54551;51.068;5.826;2022-09-13T10:07:18;30.30;99.90
67752;DHT22;54551;51.068;5.826;2022-09-13T10:10:04;30.60;99.90
67752;DHT22;54551;51.068;5.826;2022-09-13T10:12:39;30.70;99.90
67752;DHT22;54551;51.068;5.826;2022-09-13T10:15:28;30.80;99.90
67752;DHT22;54551;51.068;5.826;2022-09-13T10:20:39;30.70;99.90
67752;DHT22;54551;51.068;5.826;2022-09-13T10:25:38;30.60;99.90
67752;DHT22;54551;51.068;5.826;2022-09-13T10:28:10;30.60;99.90
67752;DHT22;54551;51.068;5.826;2022-09-13T10:30:57;30.60;99.90
67752;DHT22;54551;51.068;5.826;2022-09-13T10:33:35;30.60;99.90
67752;DHT22;54551;51.068;5.826;2022-09-13T10:36:42;30.10;99.90
67752;DHT22;54551;51.068;5.826;2022-09-13T10:39:04;29.60;99.90
67752;DHT22;54551;51.068;5.826;2022-09-13T10:41:33;29.00;99.90
67752;DHT22;54551;51.068;5.826;2022-09-13T10:44:04;28.60;99.90
67752;DHT22;54551;51.068;5.826;2022-09-13T10:46:34;28.50;99.90
67752;DHT22;54551;51.068;5.826;2022-09-13T10:49:01;28.50;99.90
67752;DHT22;54551;51.068;5.826;2022-09-13T10:51:32;29.00;99.90
67752;DHT22;54551;51.068;5.826;2022-09-13T10:54:22;29.60;99.90
67752;DHT22;54551;51.068;5.826;2022-09-13T10:56:49;30.20;99.90
67752;DHT22;54551;51.068;5.826;2022-09-13T10:59:24;30.80;99.90
67752;DHT22;54551;51.068;5.826;2022-09-13T11:15:48;33.90;95.40
67752;DHT22;54551;51.068;5.826;2022-09-13T11:35:13;34.30;92.40
67752;DHT22;54551;51.068;5.826;2022-09-13T11:49:26;35.00;90.50
67752;DHT22;54551;51.068;5.826;2022-09-13T11:52:14;34.70;89.60
67752;DHT22;54551;51.068;5.826;2022-09-13T11:55:02;34.80;90.00
67752;DHT22;54551;51.068;5.826;2022-09-13T11:57:32;34.80;89.50
67752;DHT22;54551;51.068;5.826;2022-09-13T12:05:43;34.30;88.60
67752;DHT22;54551;51.068;5.826;2022-09-13T12:08:18;34.20;89.20
67752;DHT22;54551;51.068;5.826;2022-09-13T12:10:47;34.20;89.00
67752;DHT22;54551;51.068;5.826;2022-09-13T12:13:21;34.00;88.70
67752;DHT22;54551;51.068;5.826;2022-09-13T12:15:52;33.90;87.20
67752;DHT22;54551;51.068;5.826;2022-09-13T12:18:24;33.50;88.80
67752;DHT22;54551;51.068;5.826;2022-09-13T12:21:02;32.80;90.20
67752;DHT22;54551;51.068;5.826;2022-09-13T12:23:57;32.40;90.10
67752;DHT22;54551;51.068;5.826;2022-09-13T12:26:34;31.80;91.00
67752;DHT22;54551;51.068;5.826;2022-09-13T12:29:28;31.60;92.20
67752;DHT22;54551;51.068;5.826;2022-09-13T12:32:01;31.40;92.90
67752;DHT22;54551;51.068;5.826;2022-09-13T12:34:41;31.30;92.80
67752;DHT22;54551;51.068;5.826;2022-09-13T13:03:52;30.60;95.80
67752;DHT22;54551;51.068;5.826;2022-09-13T13:06:45;30.50;95.50
67752;DHT22;54551;51.068;5.826;2022-09-13T13:12:08;30.40;96.40
67752;DHT22;54551;51.068;5.826;2022-09-13T13:20:43;30.70;96.10
67752;DHT22;54551;51.068;5.826;2022-09-13T13:23:37;31.10;94.80
67752;DHT22;54551;51.068;5.826;2022-09-13T13:28:47;31.50;93.70
67752;DHT22;54551;51.068;5.826;2022-09-13T13:36:42;31.30;95.50
67752;DHT22;54551;51.068;5.826;2022-09-13T13:46:48;31.00;95.90
67752;DHT22;54551;51.068;5.826;2022-09-13T13:59:54;30.30;95.80
67752;DHT22;54551;51.068;5.826;2022-09-13T14:02:29;30.20;96.00
67752;DHT22;54551;51.068;5.826;2022-09-13T14:13:34;30.30;96.70
67752;DHT22;54551;51.068;5.826;2022-09-13T14:21:27;29.80;98.20
67752;DHT22;54551;51.068;5.826;2022-09-13T14:26:35;29.20;98.20
67752;DHT22;54551;51.068;5.826;2022-09-13T14:29:06;28.90;98.90
67752;DHT22;54551;51.068;5.826;2022-09-13T14:31:32;28.70;99.20
67752;DHT22;54551;51.068;5.826;2022-09-13T14:33:58;28.50;99.50
67752;DHT22;54551;51.068;5.826;2022-09-13T14:36:24;28.30;99.90
67752;DHT22;54551;51.068;5.826;2022-09-13T14:38:59;28.20;99.90
67752;DHT22;54551;51.068;5.826;2022-09-13T14:41:35;28.10;99.90
67752;DHT22;54551;51.068;5.826;2022-09-13T14:44:21;28.10;99.90
67752;DHT22;54551;51.068;5.826;2022-09-13T14:46:53;27.90;99.90
67752;DHT22;54551;51.068;5.826;2022-09-13T14:49:30;27.80;99.90
67752;DHT22;54551;51.068;5.826;2022-09-13T14:52:14;27.80;99.90
67752;DHT22;54551;51.068;5.826;2022-09-13T14:54:47;27.70;99.90
67752;DHT22;54551;51.068;5.826;2022-09-13T14:57:34;27.60;99.90
67752;DHT22;54551;51.068;5.826;2022-09-13T15:00:14;27.60;99.90
67752;DHT22;54551;51.068;5.826;2022-09-13T15:05:16;27.50;99.90
67752;DHT22;54551;51.068;5.826;2022-09-13T15:07:43;27.60;99.90
67752;DHT22;54551;51.068;5.826;2022-09-13T15:12:53;27.60;99.90
67752;DHT22;54551;51.068;5.826;2022-09-13T15:15:21;27.60;99.90
67752;DHT22;54551;51.068;5.826;2022-09-13T15:17:58;27.70;99.90
67752;DHT22;54551;51.068;5.826;2022-09-13T15:20:26;27.70;99.90
67752;DHT22;54551;51.068;5.826;2022-09-13T15:22:53;27.60;99.90
67752;DHT22;54551;51.068;5.826;2022-09-13T15:25:23;27.50;99.90
67752;DHT22;54551;51.068;5.826;2022-09-13T15:27:51;27.50;99.90
67752;DHT22;54551;51.068;5.826;2022-09-13T15:30:31;27.50;99.90
67752;DHT22;54551;51.068;5.826;2022-09-13T15:33:16;27.40;99.90
67752;DHT22;54551;51.068;5.826;2022-09-13T15:35:44;27.40;99.90
67752;DHT22;54551;51.068;5.826;2022-09-13T15:38:23;27.30;99.90
67752;DHT22;54551;51.068;5.826;2022-09-13T15:41:12;27.20;99.90
67752;DHT22;54551;51.068;5.826;2022-09-13T15:43:38;27.10;99.90
67752;DHT22;54551;51.068;5.826;2022-09-13T15:46:05;27.10;99.90
67752;DHT22;54551;51.068;5.826;2022-09-13T15:48:33;27.00;99.90
67752;DHT22;54551;51.068;5.826;2022-09-13T15:51:07;27.00;99.90
67752;DHT22;54551;51.068;5.826;2022-09-13T15:53:35;26.90;99.90
67752;DHT22;54551;51.068;5.826;2022-09-13T15:56:02;26.80;99.90
67752;DHT22;54551;51.068;5.826;2022-09-13T15:58:28;26.80;99.90
67752;DHT22;54551;51.068;5.826;2022-09-13T16:00:54;26.80;99.90
67752;DHT22;54551;51.068;5.826;2022-09-13T16:03:20;26.70;99.90
67752;DHT22;54551;51.068;5.826;2022-09-13T16:05:46;26.60;99.90
67752;DHT22;54551;51.068;5.826;2022-09-13T16:08:12;26.60;99.90
67752;DHT22;54551;51.068;5.826;2022-09-13T16:10:38;26.50;99.90
67752;DHT22;54551;51.068;5.826;2022-09-13T16:13:04;26.50;99.90
67752;DHT22;54551;51.068;5.826;2022-09-13T16:15:30;26.40;99.90
67752;DHT22;54551;51.068;5.826;2022-09-13T16:17:56;26.30;99.90
67752;DHT22;54551;51.068;5.826;2022-09-13T16:20:22;26.30;99.90
67752;DHT22;54551;51.068;5.826;2022-09-13T16:22:48;26.20;99.90
67752;DHT22;54551;51.068;5.826;2022-09-13T16:25:14;26.10;99.90
67752;DHT22;54551;51.068;5.826;2022-09-13T16:27:41;26.00;99.90
67752;DHT22;54551;51.068;5.826;2022-09-13T16:30:10;25.90;99.90
67752;DHT22;54551;51.068;5.826;2022-09-13T16:32:37;25.70;99.90
67752;DHT22;54551;51.068;5.826;2022-09-13T16:35:03;25.60;99.90
67752;DHT22;54551;51.068;5.826;2022-09-13T16:37:29;25.40;99.90
67752;DHT22;54551;51.068;5.826;2022-09-13T16:39:56;25.10;99.90
67752;DHT22;54551;51.068;5.826;2022-09-13T16:42:23;24.90;99.90
67752;DHT22;54551;51.068;5.826;2022-09-13T16:44:49;24.70;99.90
67752;DHT22;54551;51.068;5.826;2022-09-13T16:47:15;24.50;99.90
67752;DHT22;54551;51.068;5.826;2022-09-13T16:49:41;24.30;99.90
67752;DHT22;54551;51.068;5.826;2022-09-13T16:52:07;24.10;99.90
67752;DHT22;54551;51.068;5.826;2022-09-13T16:54:34;24.00;99.90
67752;DHT22;54551;51.068;5.826;2022-09-13T16:57:02;23.90;99.90
67752;DHT22;54551;51.068;5.826;2022-09-13T16:59:29;23.70;99.90
67752;DHT22;54551;51.068;5.826;2022-09-13T17:01:56;23.60;99.90
67752;DHT22;54551;51.068;5.826;2022-09-13T17:04:22;23.50;99.90
67752;DHT22;54551;51.068;5.826;2022-09-13T17:06:49;23.40;99.90
67752;DHT22;54551;51.068;5.826;2022-09-13T17:09:15;23.30;99.90
67752;DHT22;54551;51.068;5.826;2022-09-13T17:11:43;23.30;99.90
67752;DHT22;54551;51.068;5.826;2022-09-13T17:14:11;23.20;99.90
67752;DHT22;54551;51.068;5.826;2022-09-13T17:16:45;23.20;99.90
67752;DHT22;54551;51.068;5.826;2022-09-13T17:19:17;23.10;99.90
67752;DHT22;54551;51.068;5.826;2022-09-13T17:21:44;23.00;99.90
67752;DHT22;54551;51.068;5.826;2022-09-13T17:24:10;22.90;99.90
67752;DHT22;54551;51.068;5.826;2022-09-13T17:26:36;22.90;99.90
67752;DHT22;54551;51.068;5.826;2022-09-13T17:29:02;22.80;99.90
67752;DHT22;54551;51.068;5.826;2022-09-13T17:31:28;22.80;99.90
67752;DHT22;54551;51.068;5.826;2022-09-13T17:33:54;22.70;99.90
67752;DHT22;54551;51.068;5.826;2022-09-13T17:36:20;22.70;99.90
67752;DHT22;54551;51.068;5.826;2022-09-13T17:38:46;22.60;99.90
67752;DHT22;54551;51.068;5.826;2022-09-13T17:41:15;22.50;99.90
67752;DHT22;54551;51.068;5.826;2022-09-13T17:43:42;22.50;99.90
67752;DHT22;54551;51.068;5.826;2022-09-13T17:46:19;22.40;99.90
67752;DHT22;54551;51.068;5.826;2022-09-13T17:48:52;22.40;99.90
67752;DHT22;54551;51.068;5.826;2022-09-13T17:51:20;22.30;99.90
67752;DHT22;54551;51.068;5.826;2022-09-13T17:53:58;22.30;99.90
67752;DHT22;54551;51.068;5.826;2022-09-13T17:56:41;22.30;99.90
67752;DHT22;54551;51.068;5.826;2022-09-13T17:59:13;22.30;99.90
67752;DHT22;54551;51.068;5.826;2022-09-13T18:01:41;22.30;99.90
67752;DHT22;54551;51.068;5.826;2022-09-13T18:04:09;22.30;99.90
67752;DHT22;54551;51.068;5.826;2022-09-13T18:06:43;22.30;99.90
67752;DHT22;54551;51.068;5.826;2022-09-13T18:09:10;22.30;99.90
67752;DHT22;54551;51.068;5.826;2022-09-13T18:11:36;22.20;99.90
67752;DHT22;54551;51.068;5.826;2022-09-13T18:14:03;22.20;99.90
67752;DHT22;54551;51.068;5.826;2022-09-13T18:16:29;22.20;99.90
67752;DHT22;54551;51.068;5.826;2022-09-13T18:18:57;22.10;99.90
67752;DHT22;54551;51.068;5.826;2022-09-13T18:21:24;22.10;99.90
67752;DHT22;54551;51.068;5.826;2022-09-13T18:23:52;22.10;99.90
67752;DHT22;54551;51.068;5.826;2022-09-13T18:26:21;22.10;99.90
67752;DHT22;54551;51.068;5.826;2022-09-13T18:28:59;22.10;99.90
67752;DHT22;54551;51.068;5.826;2022-09-13T18:31:27;22.00;99.90
67752;DHT22;54551;51.068;5.826;2022-09-13T18:34:00;22.00;99.90
67752;DHT22;54551;51.068;5.826;2022-09-13T18:36:27;21.90;99.90
67752;DHT22;54551;51.068;5.826;2022-09-13T18:38:55;21.90;99.90
67752;DHT22;54551;51.068;5.826;2022-09-13T18:43:50;21.90;99.90
67752;DHT22;54551;51.068;5.826;2022-09-13T18:46:18;21.80;99.90
67752;DHT22;54551;51.068;5.826;2022-09-13T18:48:47;21.70;99.90
67752;DHT22;54551;51.068;5.826;2022-09-13T18:51:17;21.60;99.90
67752;DHT22;54551;51.068;5.826;2022-09-13T18:53:44;21.40;99.90
67752;DHT22;54551;51.068;5.826;2022-09-13T18:56:14;21.20;99.90
67752;DHT22;54551;51.068;5.826;2022-09-13T18:58:41;20.90;99.90
67752;DHT22;54551;51.068;5.826;2022-09-13T19:01:16;20.70;99.90
67752;DHT22;54551;51.068;5.826;2022-09-13T19:03:58;20.50;99.90
67752;DHT22;54551;51.068;5.826;2022-09-13T19:08:56;20.10;99.90
67752;DHT22;54551;51.068;5.826;2022-09-13T19:11:25;20.00;99.90
67752;DHT22;54551;51.068;5.826;2022-09-13T19:13:51;20.00;99.90
67752;DHT22;54551;51.068;5.826;2022-09-13T19:16:19;20.00;99.90
67752;DHT22;54551;51.068;5.826;2022-09-13T19:18:47;20.00;99.90
67752;DHT22;54551;51.068;5.826;2022-09-13T19:21:18;20.00;99.90
67752;DHT22;54551;51.068;5.826;2022-09-13T19:23:45;20.00;99.90
67752;DHT22;54551;51.068;5.826;2022-09-13T19:26:18;20.00;99.90